CheckWX is a tool to help pilots better visualize weather data.  It is not intended as a substitute for an official pre-flight weather briefing.

21:03:11 UTC

FMMT METAR
Toamasina Airport
Madagascar
Current

1 hour ago

FMMT 232000Z 00000KT 9999 FEW017 22/21 Q1017
Observed
May-23 @ 20:00 UTC
Visibility
10,000+ meters
Flight Rules
VFR
Cloud Levels
  • Few at 1,700' AGL
Temperature
22°C / 72°F
Dewpoint
21°C / 70°F
Humidity
94%
Altimeter
30.03" Hg
Pressure
1016.92 hPa
Previous

2 hours ago

FMMT 231900Z 28001KT 9999 FEW020 22/21 Q1017 NOSIG
Observed
May-23 @ 19:00 UTC
Wind
  • 280° at 1 KTS
Visibility
10,000+ meters
Flight Rules
VFR
Cloud Levels
  • Few at 2,000' AGL
Temperature
22°C / 72°F
Dewpoint
21°C / 70°F
Humidity
94%
Altimeter
30.03" Hg
Pressure
1016.92 hPa
Previous

3 hours ago

FMMT 231800Z 28002KT 9999 FEW020 22/21 Q1017 NOSIG
Observed
May-23 @ 18:00 UTC
Wind
  • 280° at 2 KTS
Visibility
10,000+ meters
Flight Rules
VFR
Cloud Levels
  • Few at 2,000' AGL
Temperature
22°C / 72°F
Dewpoint
21°C / 70°F
Humidity
94%
Altimeter
30.03" Hg
Pressure
1016.92 hPa